sensor_id;sensor_type;location;lat;lon;timestamp;temperature;humidity
13245;DHT22;6689;53.400;12.486;2023-07-08T00:00:23;19.20;99.90
13245;DHT22;6689;53.400;12.486;2023-07-08T00:02:51;18.80;99.90
13245;DHT22;6689;53.400;12.486;2023-07-08T00:05:20;19.10;99.90
13245;DHT22;6689;53.400;12.486;2023-07-08T00:07:47;19.10;99.90
13245;DHT22;6689;53.400;12.486;2023-07-08T00:10:18;19.00;99.90
13245;DHT22;6689;53.400;12.486;2023-07-08T00:12:49;19.00;99.90
13245;DHT22;6689;53.400;12.486;2023-07-08T00:15:17;18.90;99.90
13245;DHT22;6689;53.400;12.486;2023-07-08T00:17:45;18.90;99.90
13245;DHT22;6689;53.400;12.486;2023-07-08T00:20:15;18.80;99.90
13245;DHT22;6689;53.400;12.486;2023-07-08T00:22:43;18.80;99.90
13245;DHT22;6689;53.400;12.486;2023-07-08T00:25:13;18.70;99.90
13245;DHT22;6689;53.400;12.486;2023-07-08T00:27:42;18.60;99.90
13245;DHT22;6689;53.400;12.486;2023-07-08T00:30:25;18.60;99.90
13245;DHT22;6689;53.400;12.486;2023-07-08T00:32:54;18.60;99.90
13245;DHT22;6689;53.400;12.486;2023-07-08T00:35:24;18.50;99.90
13245;DHT22;6689;53.400;12.486;2023-07-08T00:37:53;18.40;99.90
13245;DHT22;6689;53.400;12.486;2023-07-08T00:40:28;18.40;99.90
13245;DHT22;6689;53.400;12.486;2023-07-08T00:42:59;18.30;99.90
13245;DHT22;6689;53.400;12.486;2023-07-08T00:45:37;18.30;99.90
13245;DHT22;6689;53.400;12.486;2023-07-08T00:48:11;18.30;99.90
13245;DHT22;6689;53.400;12.486;2023-07-08T00:50:39;18.20;99.90
13245;DHT22;6689;53.400;12.486;2023-07-08T00:53:26;18.20;99.90
13245;DHT22;6689;53.400;12.486;2023-07-08T00:55:55;18.10;99.90
13245;DHT22;6689;53.400;12.486;2023-07-08T00:58:33;18.10;99.90
13245;DHT22;6689;53.400;12.486;2023-07-08T01:01:02;18.00;99.90
13245;DHT22;6689;53.400;12.486;2023-07-08T01:03:32;18.00;99.90
13245;DHT22;6689;53.400;12.486;2023-07-08T01:06:03;17.90;99.90
13245;DHT22;6689;53.400;12.486;2023-07-08T01:08:32;17.90;99.90
13245;DHT22;6689;53.400;12.486;2023-07-08T01:11:02;17.90;99.90
13245;DHT22;6689;53.400;12.486;2023-07-08T01:13:35;17.80;99.90
13245;DHT22;6689;53.400;12.486;2023-07-08T01:16:04;17.80;99.90
13245;DHT22;6689;53.400;12.486;2023-07-08T01:18:32;17.70;99.90
13245;DHT22;6689;53.400;12.486;2023-07-08T01:21:03;17.70;99.90
13245;DHT22;6689;53.400;12.486;2023-07-08T01:23:34;17.70;99.90
13245;DHT22;6689;53.400;12.486;2023-07-08T01:26:03;17.70;99.90
13245;DHT22;6689;53.400;12.486;2023-07-08T01:28:31;17.60;99.90
13245;DHT22;6689;53.400;12.486;2023-07-08T01:30:59;17.60;99.90
13245;DHT22;6689;53.400;12.486;2023-07-08T01:33:27;17.50;99.90
13245;DHT22;6689;53.400;12.486;2023-07-08T01:35:54;17.50;99.90
13245;DHT22;6689;53.400;12.486;2023-07-08T01:38:25;17.50;99.90
13245;DHT22;6689;53.400;12.486;2023-07-08T01:40:55;17.50;99.90
13245;DHT22;6689;53.400;12.486;2023-07-08T01:43:23;17.40;99.90
13245;DHT22;6689;53.400;12.486;2023-07-08T01:45:51;17.40;99.90
13245;DHT22;6689;53.400;12.486;2023-07-08T01:48:21;17.40;99.90
13245;DHT22;6689;53.400;12.486;2023-07-08T01:50:51;17.30;99.90
13245;DHT22;6689;53.400;12.486;2023-07-08T01:53:27;17.30;99.90
13245;DHT22;6689;53.400;12.486;2023-07-08T01:55:56;17.20;99.90
13245;DHT22;6689;53.400;12.486;2023-07-08T01:58:23;17.20;99.90
13245;DHT22;6689;53.400;12.486;2023-07-08T02:00:51;17.20;1.00
13245;DHT22;6689;53.400;12.486;2023-07-08T02:03:19;17.10;1.00
13245;DHT22;6689;53.400;12.486;2023-07-08T02:05:46;17.10;1.00
13245;DHT22;6689;53.400;12.486;2023-07-08T02:08:13;17.10;1.00
13245;DHT22;6689;53.400;12.486;2023-07-08T02:10:42;17.00;1.00
13245;DHT22;6689;53.400;12.486;2023-07-08T02:13:11;17.10;1.00
13245;DHT22;6689;53.400;12.486;2023-07-08T02:15:38;17.00;1.00
13245;DHT22;6689;53.400;12.486;2023-07-08T02:18:05;17.00;1.00
13245;DHT22;6689;53.400;12.486;2023-07-08T02:20:33;16.90;1.00
13245;DHT22;6689;53.400;12.486;2023-07-08T02:23:00;16.90;1.00
13245;DHT22;6689;53.400;12.486;2023-07-08T02:25:27;16.90;1.00
13245;DHT22;6689;53.400;12.486;2023-07-08T02:27:55;16.80;1.00
13245;DHT22;6689;53.400;12.486;2023-07-08T02:30:24;16.80;1.00
13245;DHT22;6689;53.400;12.486;2023-07-08T02:32:51;16.80;1.00
13245;DHT22;6689;53.400;12.486;2023-07-08T02:35:24;16.70;1.00
13245;DHT22;6689;53.400;12.486;2023-07-08T02:37:52;16.70;1.00
13245;DHT22;6689;53.400;12.486;2023-07-08T02:40:19;16.60;1.00
13245;DHT22;6689;53.400;12.486;2023-07-08T02:42:47;16.60;1.00
13245;DHT22;6689;53.400;12.486;2023-07-08T02:45:15;16.60;1.00
13245;DHT22;6689;53.400;12.486;2023-07-08T02:47:44;16.50;1.00
13245;DHT22;6689;53.400;12.486;2023-07-08T02:50:11;16.50;1.00
13245;DHT22;6689;53.400;12.486;2023-07-08T02:52:40;16.50;1.00
13245;DHT22;6689;53.400;12.486;2023-07-08T02:55:08;16.50;1.00
13245;DHT22;6689;53.400;12.486;2023-07-08T02:57:36;16.50;1.00
13245;DHT22;6689;53.400;12.486;2023-07-08T03:00:05;16.50;1.00
13245;DHT22;6689;53.400;12.486;2023-07-08T03:02:33;16.40;1.00
13245;DHT22;6689;53.400;12.486;2023-07-08T03:05:02;16.40;1.00
13245;DHT22;6689;53.400;12.486;2023-07-08T03:07:31;16.40;1.00
13245;DHT22;6689;53.400;12.486;2023-07-08T03:09:58;16.40;1.00
13245;DHT22;6689;53.400;12.486;2023-07-08T03:12:25;16.40;1.00
13245;DHT22;6689;53.400;12.486;2023-07-08T03:14:53;16.40;1.00
13245;DHT22;6689;53.400;12.486;2023-07-08T03:17:20;16.30;1.00
13245;DHT22;6689;53.400;12.486;2023-07-08T03:19:47;16.30;1.00
13245;DHT22;6689;53.400;12.486;2023-07-08T03:22:16;16.30;1.00
13245;DHT22;6689;53.400;12.486;2023-07-08T03:24:43;16.30;1.00
13245;DHT22;6689;53.400;12.486;2023-07-08T03:27:12;16.40;1.00
13245;DHT22;6689;53.400;12.486;2023-07-08T03:29:40;16.40;1.00
13245;DHT22;6689;53.400;12.486;2023-07-08T03:32:10;16.40;1.00
13245;DHT22;6689;53.400;12.486;2023-07-08T03:34:38;16.40;1.00
13245;DHT22;6689;53.400;12.486;2023-07-08T03:37:07;16.40;1.00
13245;DHT22;6689;53.400;12.486;2023-07-08T03:39:36;16.40;1.00
13245;DHT22;6689;53.400;12.486;2023-07-08T03:42:04;16.40;1.00
13245;DHT22;6689;53.400;12.486;2023-07-08T03:44:33;16.30;1.00
13245;DHT22;6689;53.400;12.486;2023-07-08T03:47:01;16.30;1.00
13245;DHT22;6689;53.400;12.486;2023-07-08T03:49:28;16.40;1.00
13245;DHT22;6689;53.400;12.486;2023-07-08T03:51:55;16.40;1.00
13245;DHT22;6689;53.400;12.486;2023-07-08T03:54:24;16.40;1.00
13245;DHT22;6689;53.400;12.486;2023-07-08T03:56:53;16.40;1.00
13245;DHT22;6689;53.400;12.486;2023-07-08T03:59:20;16.50;1.00
13245;DHT22;6689;53.400;12.486;2023-07-08T04:01:47;16.50;1.00
13245;DHT22;6689;53.400;12.486;2023-07-08T04:04:15;16.60;1.00
13245;DHT22;6689;53.400;12.486;2023-07-08T04:06:43;16.60;1.00
13245;DHT22;6689;53.400;12.486;2023-07-08T04:09:11;16.60;1.00
13245;DHT22;6689;53.400;12.486;2023-07-08T04:11:38;16.70;1.00
13245;DHT22;6689;53.400;12.486;2023-07-08T04:14:08;16.70;1.00
13245;DHT22;6689;53.400;12.486;2023-07-08T04:16:47;16.70;1.00
13245;DHT22;6689;53.400;12.486;2023-07-08T04:19:15;16.80;1.00
13245;DHT22;6689;53.400;12.486;2023-07-08T04:21:44;16.90;1.00
13245;DHT22;6689;53.400;12.486;2023-07-08T04:24:12;16.90;1.00
13245;DHT22;6689;53.400;12.486;2023-07-08T04:26:41;17.00;1.00
13245;DHT22;6689;53.400;12.486;2023-07-08T04:29:17;17.00;1.00
13245;DHT22;6689;53.400;12.486;2023-07-08T04:31:45;17.30;1.00
13245;DHT22;6689;53.400;12.486;2023-07-08T04:34:13;17.90;1.00
13245;DHT22;6689;53.400;12.486;2023-07-08T04:36:40;18.60;1.00
13245;DHT22;6689;53.400;12.486;2023-07-08T04:39:08;19.40;1.00
13245;DHT22;6689;53.400;12.486;2023-07-08T04:41:36;20.10;1.00
13245;DHT22;6689;53.400;12.486;2023-07-08T04:44:06;20.60;1.00
13245;DHT22;6689;53.400;12.486;2023-07-08T04:46:38;21.00;1.00
13245;DHT22;6689;53.400;12.486;2023-07-08T04:49:07;21.40;99.90
13245;DHT22;6689;53.400;12.486;2023-07-08T04:51:35;21.60;99.90
13245;DHT22;6689;53.400;12.486;2023-07-08T04:54:03;21.90;99.90
13245;DHT22;6689;53.400;12.486;2023-07-08T04:56:38;22.10;99.90
13245;DHT22;6689;53.400;12.486;2023-07-08T04:59:07;22.30;99.90
13245;DHT22;6689;53.400;12.486;2023-07-08T05:01:36;22.40;99.90
13245;DHT22;6689;53.400;12.486;2023-07-08T05:04:04;22.20;99.90
13245;DHT22;6689;53.400;12.486;2023-07-08T05:06:32;22.00;99.90
13245;DHT22;6689;53.400;12.486;2023-07-08T05:08:59;22.10;99.90
13245;DHT22;6689;53.400;12.486;2023-07-08T05:11:28;22.10;99.90
13245;DHT22;6689;53.400;12.486;2023-07-08T05:13:55;22.10;99.90
13245;DHT22;6689;53.400;12.486;2023-07-08T05:16:22;22.20;99.90
13245;DHT22;6689;53.400;12.486;2023-07-08T05:18:51;22.30;99.90
13245;DHT22;6689;53.400;12.486;2023-07-08T05:21:19;22.30;99.90
13245;DHT22;6689;53.400;12.486;2023-07-08T05:23:47;22.40;99.90
13245;DHT22;6689;53.400;12.486;2023-07-08T05:26:15;22.40;99.90
13245;DHT22;6689;53.400;12.486;2023-07-08T05:28:42;22.50;99.90
13245;DHT22;6689;53.400;12.486;2023-07-08T05:31:10;22.60;99.90
13245;DHT22;6689;53.400;12.486;2023-07-08T05:33:37;22.80;99.90
13245;DHT22;6689;53.400;12.486;2023-07-08T05:36:06;22.90;99.90
13245;DHT22;6689;53.400;12.486;2023-07-08T05:38:33;22.90;99.90
13245;DHT22;6689;53.400;12.486;2023-07-08T05:41:01;23.10;99.90
13245;DHT22;6689;53.400;12.486;2023-07-08T05:43:28;23.10;99.90
13245;DHT22;6689;53.400;12.486;2023-07-08T05:45:58;23.10;99.90
13245;DHT22;6689;53.400;12.486;2023-07-08T05:48:26;23.20;99.90
13245;DHT22;6689;53.400;12.486;2023-07-08T05:50:54;23.10;99.90
13245;DHT22;6689;53.400;12.486;2023-07-08T05:53:23;23.20;99.90
13245;DHT22;6689;53.400;12.486;2023-07-08T05:55:50;23.20;99.90
13245;DHT22;6689;53.400;12.486;2023-07-08T05:58:17;23.30;99.90
13245;DHT22;6689;53.400;12.486;2023-07-08T06:00:45;23.30;99.90
13245;DHT22;6689;53.400;12.486;2023-07-08T06:03:12;23.40;99.90
13245;DHT22;6689;53.400;12.486;2023-07-08T06:05:40;23.40;99.90
13245;DHT22;6689;53.400;12.486;2023-07-08T06:08:07;23.30;99.90
13245;DHT22;6689;53.400;12.486;2023-07-08T06:10:41;23.30;99.90
13245;DHT22;6689;53.400;12.486;2023-07-08T06:13:09;23.20;99.90
13245;DHT22;6689;53.400;12.486;2023-07-08T06:15:36;23.30;99.90
13245;DHT22;6689;53.400;12.486;2023-07-08T06:18:03;23.20;99.90
13245;DHT22;6689;53.400;12.486;2023-07-08T06:20:31;23.30;99.90
13245;DHT22;6689;53.400;12.486;2023-07-08T06:22:58;23.40;99.90
13245;DHT22;6689;53.400;12.486;2023-07-08T06:25:26;23.50;99.90
13245;DHT22;6689;53.400;12.486;2023-07-08T06:27:54;23.60;99.90
13245;DHT22;6689;53.400;12.486;2023-07-08T06:30:22;23.70;99.90
13245;DHT22;6689;53.400;12.486;2023-07-08T06:32:49;23.70;99.90
13245;DHT22;6689;53.400;12.486;2023-07-08T06:35:17;23.80;99.90
13245;DHT22;6689;53.400;12.486;2023-07-08T06:37:44;23.90;99.90
13245;DHT22;6689;53.400;12.486;2023-07-08T06:40:12;23.90;99.90
13245;DHT22;6689;53.400;12.486;2023-07-08T06:42:39;23.90;99.90
13245;DHT22;6689;53.400;12.486;2023-07-08T06:45:09;23.70;99.90
13245;DHT22;6689;53.400;12.486;2023-07-08T06:47:37;24.00;99.90
13245;DHT22;6689;53.400;12.486;2023-07-08T06:50:06;24.10;99.90
13245;DHT22;6689;53.400;12.486;2023-07-08T06:52:34;24.20;99.90
13245;DHT22;6689;53.400;12.486;2023-07-08T06:55:05;24.30;99.90
13245;DHT22;6689;53.400;12.486;2023-07-08T06:57:32;24.40;99.90
13245;DHT22;6689;53.400;12.486;2023-07-08T06:59:59;24.30;99.90
13245;DHT22;6689;53.400;12.486;2023-07-08T07:02:28;24.40;99.90
13245;DHT22;6689;53.400;12.486;2023-07-08T07:04:55;24.60;99.90
13245;DHT22;6689;53.400;12.486;2023-07-08T07:07:23;24.40;99.90
13245;DHT22;6689;53.400;12.486;2023-07-08T07:09:50;24.60;99.90
13245;DHT22;6689;53.400;12.486;2023-07-08T07:12:18;24.70;99.90
13245;DHT22;6689;53.400;12.486;2023-07-08T07:14:45;24.80;99.90
13245;DHT22;6689;53.400;12.486;2023-07-08T07:17:12;24.90;99.90
13245;DHT22;6689;53.400;12.486;2023-07-08T07:19:43;25.00;99.90
13245;DHT22;6689;53.400;12.486;2023-07-08T07:22:10;25.10;99.90
13245;DHT22;6689;53.400;12.486;2023-07-08T07:24:40;25.10;99.90
13245;DHT22;6689;53.400;12.486;2023-07-08T07:27:08;25.30;99.90
13245;DHT22;6689;53.400;12.486;2023-07-08T07:29:42;25.30;99.90
13245;DHT22;6689;53.400;12.486;2023-07-08T07:32:10;25.40;99.90
13245;DHT22;6689;53.400;12.486;2023-07-08T07:34:38;25.50;99.90
13245;DHT22;6689;53.400;12.486;2023-07-08T07:37:11;25.70;99.90
13245;DHT22;6689;53.400;12.486;2023-07-08T07:39:39;25.70;99.90
13245;DHT22;6689;53.400;12.486;2023-07-08T07:42:07;26.00;99.90
13245;DHT22;6689;53.400;12.486;2023-07-08T07:44:34;25.90;99.90
13245;DHT22;6689;53.400;12.486;2023-07-08T07:47:02;25.50;99.90
13245;DHT22;6689;53.400;12.486;2023-07-08T07:49:29;25.60;99.90
13245;DHT22;6689;53.400;12.486;2023-07-08T07:51:57;25.80;99.90
13245;DHT22;6689;53.400;12.486;2023-07-08T07:54:26;25.90;99.90
13245;DHT22;6689;53.400;12.486;2023-07-08T07:56:55;26.00;99.90
13245;DHT22;6689;53.400;12.486;2023-07-08T07:59:23;26.00;99.90
13245;DHT22;6689;53.400;12.486;2023-07-08T08:01:50;26.10;99.90
13245;DHT22;6689;53.400;12.486;2023-07-08T08:04:17;26.20;99.90
13245;DHT22;6689;53.400;12.486;2023-07-08T08:06:45;26.30;99.90
13245;DHT22;6689;53.400;12.486;2023-07-08T08:09:13;26.40;99.90
13245;DHT22;6689;53.400;12.486;2023-07-08T08:11:41;26.50;99.90
13245;DHT22;6689;53.400;12.486;2023-07-08T08:14:10;26.60;99.90
13245;DHT22;6689;53.400;12.486;2023-07-08T08:16:37;26.60;99.90
13245;DHT22;6689;53.400;12.486;2023-07-08T08:19:04;26.70;99.90
13245;DHT22;6689;53.400;12.486;2023-07-08T08:21:32;26.60;99.90
13245;DHT22;6689;53.400;12.486;2023-07-08T08:23:59;26.70;99.90
13245;DHT22;6689;53.400;12.486;2023-07-08T08:26:27;26.80;99.90
13245;DHT22;6689;53.400;12.486;2023-07-08T08:28:56;26.90;99.90
13245;DHT22;6689;53.400;12.486;2023-07-08T08:31:23;27.00;99.90
13245;DHT22;6689;53.400;12.486;2023-07-08T08:33:51;27.10;99.90
13245;DHT22;6689;53.400;12.486;2023-07-08T08:36:19;27.10;99.90
13245;DHT22;6689;53.400;12.486;2023-07-08T08:38:46;26.90;99.90
13245;DHT22;6689;53.400;12.486;2023-07-08T08:41:16;27.20;99.90
13245;DHT22;6689;53.400;12.486;2023-07-08T08:43:44;27.20;99.90
13245;DHT22;6689;53.400;12.486;2023-07-08T08:46:20;27.20;99.90
13245;DHT22;6689;53.400;12.486;2023-07-08T08:48:53;27.30;99.90
13245;DHT22;6689;53.400;12.486;2023-07-08T08:51:27;27.30;99.90
13245;DHT22;6689;53.400;12.486;2023-07-08T08:53:58;27.40;99.90
13245;DHT22;6689;53.400;12.486;2023-07-08T08:56:28;27.40;99.90
13245;DHT22;6689;53.400;12.486;2023-07-08T08:59:00;27.30;99.90
13245;DHT22;6689;53.400;12.486;2023-07-08T09:01:31;27.40;99.90
13245;DHT22;6689;53.400;12.486;2023-07-08T09:04:02;27.40;99.90
13245;DHT22;6689;53.400;12.486;2023-07-08T09:06:32;27.40;99.90
13245;DHT22;6689;53.400;12.486;2023-07-08T09:09:02;27.40;99.90
13245;DHT22;6689;53.400;12.486;2023-07-08T09:11:41;27.30;99.90
13245;DHT22;6689;53.400;12.486;2023-07-08T09:14:15;27.40;99.90
13245;DHT22;6689;53.400;12.486;2023-07-08T09:16:52;27.70;99.90
13245;DHT22;6689;53.400;12.486;2023-07-08T09:19:26;27.80;99.90
13245;DHT22;6689;53.400;12.486;2023-07-08T09:22:00;27.90;99.90
13245;DHT22;6689;53.400;12.486;2023-07-08T09:24:33;28.00;99.90
13245;DHT22;6689;53.400;12.486;2023-07-08T09:27:03;28.20;99.90
13245;DHT22;6689;53.400;12.486;2023-07-08T09:29:33;28.20;99.90
13245;DHT22;6689;53.400;12.486;2023-07-08T09:32:13;28.40;99.90
13245;DHT22;6689;53.400;12.486;2023-07-08T09:34:45;28.30;99.90
13245;DHT22;6689;53.400;12.486;2023-07-08T09:37:34;28.50;99.90
13245;DHT22;6689;53.400;12.486;2023-07-08T09:40:04;28.50;99.90
13245;DHT22;6689;53.400;12.486;2023-07-08T09:42:39;28.70;99.90
13245;DHT22;6689;53.400;12.486;2023-07-08T09:45:13;28.20;99.90
13245;DHT22;6689;53.400;12.486;2023-07-08T09:47:43;28.50;99.90
13245;DHT22;6689;53.400;12.486;2023-07-08T09:50:18;28.40;99.90
13245;DHT22;6689;53.400;12.486;2023-07-08T09:52:46;28.40;99.90
13245;DHT22;6689;53.400;12.486;2023-07-08T09:55:14;28.50;99.90
13245;DHT22;6689;53.400;12.486;2023-07-08T09:57:43;28.70;99.90
13245;DHT22;6689;53.400;12.486;2023-07-08T10:00:14;28.90;99.90
13245;DHT22;6689;53.400;12.486;2023-07-08T10:02:45;29.00;99.90
13245;DHT22;6689;53.400;12.486;2023-07-08T10:05:18;29.30;99.90
13245;DHT22;6689;53.400;12.486;2023-07-08T10:07:46;29.40;99.90
13245;DHT22;6689;53.400;12.486;2023-07-08T10:10:16;28.70;99.90
13245;DHT22;6689;53.400;12.486;2023-07-08T10:12:53;29.10;99.90
13245;DHT22;6689;53.400;12.486;2023-07-08T10:15:27;29.30;99.90
13245;DHT22;6689;53.400;12.486;2023-07-08T10:17:58;29.40;99.90
13245;DHT22;6689;53.400;12.486;2023-07-08T10:20:34;29.20;99.90
13245;DHT22;6689;53.400;12.486;2023-07-08T10:23:11;29.30;99.90
13245;DHT22;6689;53.400;12.486;2023-07-08T10:25:46;29.30;99.90
13245;DHT22;6689;53.400;12.486;2023-07-08T10:28:29;29.60;99.90
13245;DHT22;6689;53.400;12.486;2023-07-08T10:31:10;29.70;99.90
13245;DHT22;6689;53.400;12.486;2023-07-08T10:34:09;29.90;99.90
13245;DHT22;6689;53.400;12.486;2023-07-08T10:36:47;29.60;99.90
13245;DHT22;6689;53.400;12.486;2023-07-08T10:42:27;30.10;99.90
13245;DHT22;6689;53.400;12.486;2023-07-08T10:45:04;30.00;99.90
13245;DHT22;6689;53.400;12.486;2023-07-08T10:47:49;29.90;99.90
13245;DHT22;6689;53.400;12.486;2023-07-08T10:50:36;29.90;99.90
13245;DHT22;6689;53.400;12.486;2023-07-08T10:56:01;30.00;99.90
13245;DHT22;6689;53.400;12.486;2023-07-08T10:58:40;30.00;99.90
13245;DHT22;6689;53.400;12.486;2023-07-08T11:01:24;30.10;99.90
13245;DHT22;6689;53.400;12.486;2023-07-08T11:04:13;29.80;99.90
13245;DHT22;6689;53.400;12.486;2023-07-08T11:06:51;30.20;99.90
13245;DHT22;6689;53.400;12.486;2023-07-08T11:09:26;30.30;99.90
13245;DHT22;6689;53.400;12.486;2023-07-08T11:11:58;30.50;99.90
13245;DHT22;6689;53.400;12.486;2023-07-08T11:14:33;30.50;99.90
13245;DHT22;6689;53.400;12.486;2023-07-08T11:17:10;30.80;99.90
13245;DHT22;6689;53.400;12.486;2023-07-08T11:19:45;30.60;99.90
13245;DHT22;6689;53.400;12.486;2023-07-08T11:22:17;30.90;99.90
13245;DHT22;6689;53.400;12.486;2023-07-08T11:24:48;30.90;99.90
13245;DHT22;6689;53.400;12.486;2023-07-08T11:27:21;30.90;99.90
13245;DHT22;6689;53.400;12.486;2023-07-08T11:29:55;31.10;99.90
13245;DHT22;6689;53.400;12.486;2023-07-08T11:32:26;31.10;99.90
13245;DHT22;6689;53.400;12.486;2023-07-08T11:34:55;31.20;99.90
13245;DHT22;6689;53.400;12.486;2023-07-08T11:37:26;31.30;99.90
13245;DHT22;6689;53.400;12.486;2023-07-08T11:39:54;31.30;99.90
13245;DHT22;6689;53.400;12.486;2023-07-08T11:42:37;31.40;99.90
13245;DHT22;6689;53.400;12.486;2023-07-08T11:45:15;31.50;99.90
13245;DHT22;6689;53.400;12.486;2023-07-08T11:47:47;31.40;99.90
13245;DHT22;6689;53.400;12.486;2023-07-08T11:50:20;31.40;99.90
13245;DHT22;6689;53.400;12.486;2023-07-08T11:52:57;31.30;99.90
13245;DHT22;6689;53.400;12.486;2023-07-08T11:55:26;30.90;99.90
13245;DHT22;6689;53.400;12.486;2023-07-08T11:58:00;31.30;99.90
13245;DHT22;6689;53.400;12.486;2023-07-08T12:00:31;31.40;99.90
13245;DHT22;6689;53.400;12.486;2023-07-08T12:03:16;31.60;99.90
13245;DHT22;6689;53.400;12.486;2023-07-08T12:05:45;31.70;99.90
13245;DHT22;6689;53.400;12.486;2023-07-08T12:08:15;31.80;99.90
13245;DHT22;6689;53.400;12.486;2023-07-08T12:10:48;31.80;99.90
13245;DHT22;6689;53.400;12.486;2023-07-08T12:13:18;31.80;99.90
13245;DHT22;6689;53.400;12.486;2023-07-08T12:15:45;31.80;99.90
13245;DHT22;6689;53.400;12.486;2023-07-08T12:18:15;31.70;99.90
13245;DHT22;6689;53.400;12.486;2023-07-08T12:20:45;31.80;99.90
13245;DHT22;6689;53.400;12.486;2023-07-08T12:23:17;31.70;99.90
13245;DHT22;6689;53.400;12.486;2023-07-08T12:25:46;31.90;99.90
13245;DHT22;6689;53.400;12.486;2023-07-08T12:28:14;32.00;99.90
13245;DHT22;6689;53.400;12.486;2023-07-08T12:30:43;32.10;99.90
13245;DHT22;6689;53.400;12.486;2023-07-08T12:33:13;32.10;99.90
13245;DHT22;6689;53.400;12.486;2023-07-08T12:35:42;32.10;99.90
13245;DHT22;6689;53.400;12.486;2023-07-08T12:38:19;32.20;99.90
13245;DHT22;6689;53.400;12.486;2023-07-08T12:40:48;32.20;99.90
13245;DHT22;6689;53.400;12.486;2023-07-08T12:43:16;32.00;99.90
13245;DHT22;6689;53.400;12.486;2023-07-08T12:45:44;32.10;99.90
13245;DHT22;6689;53.400;12.486;2023-07-08T12:48:11;32.30;99.90
13245;DHT22;6689;53.400;12.486;2023-07-08T12:50:39;32.10;99.90
13245;DHT22;6689;53.400;12.486;2023-07-08T12:53:06;32.40;99.90
13245;DHT22;6689;53.400;12.486;2023-07-08T12:55:38;32.60;99.90
13245;DHT22;6689;53.400;12.486;2023-07-08T12:58:05;32.10;99.90
13245;DHT22;6689;53.400;12.486;2023-07-08T13:00:39;32.50;99.90
13245;DHT22;6689;53.400;12.486;2023-07-08T13:03:12;32.50;99.90
13245;DHT22;6689;53.400;12.486;2023-07-08T13:05:43;32.60;99.90
13245;DHT22;6689;53.400;12.486;2023-07-08T13:08:12;32.70;99.90
13245;DHT22;6689;53.400;12.486;2023-07-08T13:10:42;32.80;99.90
13245;DHT22;6689;53.400;12.486;2023-07-08T13:13:13;32.90;99.90
13245;DHT22;6689;53.400;12.486;2023-07-08T13:15:43;32.80;99.90
13245;DHT22;6689;53.400;12.486;2023-07-08T13:18:14;32.80;99.90
13245;DHT22;6689;53.400;12.486;2023-07-08T13:20:48;32.90;99.90
13245;DHT22;6689;53.400;12.486;2023-07-08T13:23:16;33.00;99.90
13245;DHT22;6689;53.400;12.486;2023-07-08T13:25:48;33.00;99.90
13245;DHT22;6689;53.400;12.486;2023-07-08T13:28:17;33.00;99.90
13245;DHT22;6689;53.400;12.486;2023-07-08T13:30:51;33.10;99.90
13245;DHT22;6689;53.400;12.486;2023-07-08T13:33:19;33.10;99.90
13245;DHT22;6689;53.400;12.486;2023-07-08T13:35:48;33.10;99.90
13245;DHT22;6689;53.400;12.486;2023-07-08T13:38:17;33.20;99.90
13245;DHT22;6689;53.400;12.486;2023-07-08T13:40:49;33.20;99.90
13245;DHT22;6689;53.400;12.486;2023-07-08T13:43:23;33.30;99.90
13245;DHT22;6689;53.400;12.486;2023-07-08T13:45:51;33.30;99.90
13245;DHT22;6689;53.400;12.486;2023-07-08T13:48:23;33.30;99.90
13245;DHT22;6689;53.400;12.486;2023-07-08T13:50:55;33.30;99.90
13245;DHT22;6689;53.400;12.486;2023-07-08T13:53:26;33.40;99.90
13245;DHT22;6689;53.400;12.486;2023-07-08T13:56:03;33.30;99.90
13245;DHT22;6689;53.400;12.486;2023-07-08T13:58:31;33.20;99.90
13245;DHT22;6689;53.400;12.486;2023-07-08T14:00:58;33.20;99.90
13245;DHT22;6689;53.400;12.486;2023-07-08T14:03:26;33.00;99.90
13245;DHT22;6689;53.400;12.486;2023-07-08T14:05:53;32.90;99.90
13245;DHT22;6689;53.400;12.486;2023-07-08T14:08:21;32.70;99.90
13245;DHT22;6689;53.400;12.486;2023-07-08T14:10:49;32.70;99.90
13245;DHT22;6689;53.400;12.486;2023-07-08T14:13:17;32.80;99.90
13245;DHT22;6689;53.400;12.486;2023-07-08T14:15:45;32.40;99.90
13245;DHT22;6689;53.400;12.486;2023-07-08T14:18:15;32.50;99.90
13245;DHT22;6689;53.400;12.486;2023-07-08T14:20:42;32.50;99.90
13245;DHT22;6689;53.400;12.486;2023-07-08T14:23:10;32.60;99.90
13245;DHT22;6689;53.400;12.486;2023-07-08T14:25:39;32.50;99.90
13245;DHT22;6689;53.400;12.486;2023-07-08T14:28:07;32.60;99.90
13245;DHT22;6689;53.400;12.486;2023-07-08T14:30:42;32.60;99.90
13245;DHT22;6689;53.400;12.486;2023-07-08T14:33:11;32.60;99.90
13245;DHT22;6689;53.400;12.486;2023-07-08T14:35:39;32.60;99.90
13245;DHT22;6689;53.400;12.486;2023-07-08T14:38:10;32.60;99.90
13245;DHT22;6689;53.400;12.486;2023-07-08T14:40:39;32.60;99.90
13245;DHT22;6689;53.400;12.486;2023-07-08T14:43:13;32.60;99.90
13245;DHT22;6689;53.400;12.486;2023-07-08T14:45:45;32.40;99.90
13245;DHT22;6689;53.400;12.486;2023-07-08T14:48:13;32.50;99.90
13245;DHT22;6689;53.400;12.486;2023-07-08T14:50:41;32.20;99.90
13245;DHT22;6689;53.400;12.486;2023-07-08T14:53:08;32.20;99.90
13245;DHT22;6689;53.400;12.486;2023-07-08T14:55:36;32.30;99.90
13245;DHT22;6689;53.400;12.486;2023-07-08T14:58:04;32.30;99.90
13245;DHT22;6689;53.400;12.486;2023-07-08T15:00:31;32.00;99.90
13245;DHT22;6689;53.400;12.486;2023-07-08T15:03:00;32.00;99.90
13245;DHT22;6689;53.400;12.486;2023-07-08T15:05:28;32.10;99.90
13245;DHT22;6689;53.400;12.486;2023-07-08T15:07:56;32.00;99.90
13245;DHT22;6689;53.400;12.486;2023-07-08T15:10:26;31.90;99.90
13245;DHT22;6689;53.400;12.486;2023-07-08T15:12:55;32.00;99.90
13245;DHT22;6689;53.400;12.486;2023-07-08T15:15:27;31.80;99.90
13245;DHT22;6689;53.400;12.486;2023-07-08T15:17:56;31.60;99.90
13245;DHT22;6689;53.400;12.486;2023-07-08T15:20:25;31.70;99.90
13245;DHT22;6689;53.400;12.486;2023-07-08T15:22:53;31.50;99.90
13245;DHT22;6689;53.400;12.486;2023-07-08T15:25:20;31.50;99.90
13245;DHT22;6689;53.400;12.486;2023-07-08T15:27:50;31.10;99.90
13245;DHT22;6689;53.400;12.486;2023-07-08T15:30:19;31.00;99.90
13245;DHT22;6689;53.400;12.486;2023-07-08T15:32:48;31.10;99.90
13245;DHT22;6689;53.400;12.486;2023-07-08T15:35:16;31.20;99.90
13245;DHT22;6689;53.400;12.486;2023-07-08T15:37:46;31.10;99.90
13245;DHT22;6689;53.400;12.486;2023-07-08T15:40:16;31.10;99.90
13245;DHT22;6689;53.400;12.486;2023-07-08T15:42:45;31.20;99.90
13245;DHT22;6689;53.400;12.486;2023-07-08T15:45:15;31.10;99.90
13245;DHT22;6689;53.400;12.486;2023-07-08T15:47:42;31.10;99.90
13245;DHT22;6689;53.400;12.486;2023-07-08T15:50:12;31.10;99.90
13245;DHT22;6689;53.400;12.486;2023-07-08T15:52:40;31.20;99.90
13245;DHT22;6689;53.400;12.486;2023-07-08T15:55:11;31.10;99.90